createdAt,value
2019-05-05T00:02:14.361Z,13.80
2019-05-05T00:04:55.677Z,10.57
2019-05-05T00:07:28.717Z,12.63
2019-05-05T00:09:57.776Z,14.03
2019-05-05T00:12:51.836Z,13.40
2019-05-05T00:15:38.792Z,14.03
2019-05-05T00:18:07.939Z,15.40
2019-05-05T00:20:37.034Z,9.03
2019-05-05T00:23:06.300Z,18.33
2019-05-05T00:25:36.550Z,14.07
2019-05-05T00:28:10.511Z,15.07
2019-05-05T00:30:41.143Z,17.13
2019-05-05T00:33:10.262Z,13.30
2019-05-05T00:35:39.347Z,13.70
2019-05-05T00:38:08.483Z,15.70
2019-05-05T00:40:39.415Z,12.73
2019-05-05T00:43:19.345Z,12.33
2019-05-05T00:45:51.959Z,17.27
2019-05-05T00:48:30.828Z,15.87
2019-05-05T00:51:01.521Z,13.70
2019-05-05T00:53:30.679Z,13.70
2019-05-05T00:56:00.141Z,13.30
2019-05-05T00:58:32.267Z,12.50
2019-05-05T01:01:16.328Z,15.10
2019-05-05T01:03:46.944Z,18.07
2019-05-05T01:06:20.187Z,14.40
2019-05-05T01:08:51.117Z,15.23
2019-05-05T01:11:20.962Z,17.67
2019-05-05T01:13:56.210Z,15.10
2019-05-05T01:16:28.175Z,14.07
2019-05-05T01:19:00.046Z,18.77
2019-05-05T01:21:29.226Z,15.90
2019-05-05T01:24:05.131Z,15.70
2019-05-05T01:26:37.526Z,15.50
2019-05-05T01:29:10.774Z,19.07
2019-05-05T01:31:41.440Z,15.80
2019-05-05T01:34:17.229Z,16.40
2019-05-05T01:36:51.103Z,17.80
2019-05-05T01:39:45.290Z,17.57
2019-05-05T01:42:15.496Z,18.40
2019-05-05T01:44:44.910Z,20.73
2019-05-05T01:47:14.755Z,15.43
2019-05-05T01:49:45.254Z,19.33
2019-05-05T01:52:15.111Z,14.43
2019-05-05T01:54:44.713Z,18.37
2019-05-05T01:57:14.928Z,17.37
2019-05-05T01:59:47.569Z,20.73
2019-05-05T02:02:16.818Z,17.80
2019-05-05T02:04:47.098Z,19.50
2019-05-05T02:07:18.686Z,17.53
2019-05-05T02:09:47.758Z,16.00
2019-05-05T02:12:16.915Z,16.00
2019-05-05T02:14:45.987Z,19.50
2019-05-05T02:17:15.028Z,18.00
2019-05-05T02:19:44.454Z,18.73
2019-05-05T02:22:16.926Z,16.57
2019-05-05T02:24:46.265Z,17.70
2019-05-05T02:27:19.596Z,20.13
2019-05-05T02:29:57.969Z,18.17
2019-05-05T02:32:51.034Z,18.40
2019-05-05T02:35:25.621Z,24.57
2019-05-05T02:37:55.766Z,18.90
2019-05-05T02:40:24.986Z,20.00
2019-05-05T02:42:56.614Z,19.20
2019-05-05T02:45:55.272Z,19.47
2019-05-05T02:48:25.190Z,20.47
2019-05-05T02:51:02.131Z,16.90
2019-05-05T02:53:35.043Z,21.80
2019-05-05T02:56:06.737Z,19.73
2019-05-05T02:58:37.658Z,19.53
2019-05-05T03:01:26.377Z,16.47
2019-05-05T03:03:59.819Z,21.27
2019-05-05T03:06:38.317Z,17.43
2019-05-05T03:09:08.603Z,25.30
2019-05-05T03:11:43.749Z,19.80
2019-05-05T03:14:15.876Z,19.27
2019-05-05T03:16:48.305Z,23.70
2019-05-05T03:19:17.458Z,21.03
2019-05-05T03:21:46.849Z,18.40
2019-05-05T03:24:20.574Z,23.57
2019-05-05T03:26:49.639Z,17.43
2019-05-05T03:29:24.386Z,18.10
2019-05-05T03:31:56.385Z,19.87
2019-05-05T03:34:30.011Z,21.80
2019-05-05T03:36:59.163Z,23.80
2019-05-05T03:39:31.150Z,22.63
2019-05-05T03:42:18.507Z,19.90
2019-05-05T03:44:56.606Z,23.17
2019-05-05T03:47:26.350Z,19.33
2019-05-05T03:49:56.438Z,19.83
2019-05-05T03:52:27.028Z,15.33
2019-05-05T03:55:03.822Z,17.93
2019-05-05T03:57:36.171Z,20.30
2019-05-05T04:00:26.525Z,18.43
2019-05-05T04:03:04.281Z,17.40
2019-05-05T04:05:37.798Z,18.10
2019-05-05T04:08:08.148Z,18.63
2019-05-05T04:10:37.431Z,17.97
2019-05-05T04:13:09.649Z,15.57
2019-05-05T04:15:40.587Z,18.80
2019-05-05T04:18:31.275Z,20.30
2019-05-05T04:21:04.826Z,18.47
2019-05-05T04:23:34.029Z,15.90
2019-05-05T04:26:03.787Z,17.37
2019-05-05T04:28:34.553Z,19.47
2019-05-05T04:31:04.297Z,19.63
2019-05-05T04:33:34.178Z,25.57
2019-05-05T04:36:03.947Z,16.67
2019-05-05T04:38:36.190Z,20.27
2019-05-05T04:41:08.396Z,15.73
2019-05-05T04:43:44.292Z,17.67
2019-05-05T04:46:14.178Z,21.33
2019-05-05T04:48:49.596Z,19.67
2019-05-05T04:51:24.533Z,19.97
2019-05-05T04:54:14.695Z,15.77
2019-05-05T04:56:46.652Z,19.87
2019-05-05T04:59:20.145Z,17.03
2019-05-05T05:01:51.315Z,18.83
2019-05-05T05:04:29.875Z,15.00
2019-05-05T05:06:59.484Z,18.83
2019-05-05T05:09:31.134Z,15.10
2019-05-05T05:12:04.067Z,18.10
2019-05-05T05:14:33.781Z,14.70
2019-05-05T05:17:05.555Z,18.97
2019-05-05T05:19:35.505Z,18.23
2019-05-05T05:22:05.079Z,22.33
2019-05-05T05:24:35.344Z,16.13
2019-05-05T05:27:07.476Z,20.07
2019-05-05T05:29:40.965Z,15.87
2019-05-05T05:32:10.431Z,19.63
2019-05-05T05:34:39.570Z,16.73
2019-05-05T05:37:08.772Z,14.90
2019-05-05T05:40:03.992Z,13.53
2019-05-05T05:42:34.394Z,20.23
2019-05-05T05:45:30.853Z,16.87
2019-05-05T05:48:16.742Z,17.77
2019-05-05T05:50:54.734Z,17.57
2019-05-05T05:53:24.018Z,17.77
2019-05-05T05:55:53.878Z,15.07
2019-05-05T05:58:26.487Z,15.90
2019-05-05T06:00:56.928Z,16.63
2019-05-05T06:03:26.168Z,13.60
2019-05-05T06:05:55.344Z,15.10
2019-05-05T06:08:29.886Z,16.87
2019-05-05T06:11:00.937Z,15.03
2019-05-05T06:13:31.206Z,14.57
2019-05-05T06:16:04.232Z,11.83
2019-05-05T06:18:36.190Z,11.57
2019-05-05T06:21:06.522Z,11.90
2019-05-05T06:23:43.716Z,12.03
2019-05-05T06:26:16.192Z,16.07
2019-05-05T06:28:45.276Z,16.27
2019-05-05T06:31:21.276Z,11.40
2019-05-05T06:33:51.370Z,16.30
2019-05-05T06:36:23.420Z,15.17
2019-05-05T06:38:54.238Z,12.23
2019-05-05T06:41:34.180Z,13.07
2019-05-05T06:44:25.529Z,13.30
2019-05-05T06:47:04.686Z,11.50
2019-05-05T06:49:35.392Z,14.50
2019-05-05T06:52:07.524Z,13.30
2019-05-05T06:54:43.820Z,14.23
2019-05-05T06:57:13.830Z,12.93
2019-05-05T06:59:43.908Z,11.43
2019-05-05T07:02:14.613Z,11.00
2019-05-05T07:04:54.624Z,13.23
2019-05-05T07:07:24.090Z,14.53
2019-05-05T07:09:56.016Z,13.80
2019-05-05T07:12:25.252Z,10.90
2019-05-05T07:14:54.347Z,12.50
2019-05-05T07:17:24.513Z,9.20
2019-05-05T07:19:54.382Z,9.53
2019-05-05T07:22:25.726Z,11.40
2019-05-05T07:24:56.167Z,10.80
2019-05-05T07:27:25.332Z,13.57
2019-05-05T07:29:54.453Z,10.80
2019-05-05T07:32:24.492Z,9.27
2019-05-05T07:35:17.622Z,10.30
2019-05-05T07:37:49.701Z,9.73
2019-05-05T07:40:24.900Z,12.03
2019-05-05T07:42:54.248Z,15.07
2019-05-05T07:45:25.738Z,10.30
2019-05-05T07:47:54.443Z,12.03
2019-05-05T07:50:32.290Z,11.60
2019-05-05T07:53:11.433Z,9.77
2019-05-05T07:55:36.037Z,12.67
2019-05-05T07:58:05.169Z,9.70
2019-05-05T08:00:37.679Z,11.23
2019-05-05T08:03:10.318Z,10.00
2019-05-05T08:05:44.068Z,10.60
2019-05-05T08:08:14.143Z,13.57
2019-05-05T08:10:45.071Z,17.30
2019-05-05T08:13:17.797Z,10.87
2019-05-05T08:15:59.205Z,12.50
2019-05-05T08:18:43.837Z,9.97
2019-05-05T08:21:13.658Z,7.03
2019-05-05T08:24:04.712Z,11.40
2019-05-05T08:26:55.407Z,8.00
2019-05-05T08:29:34.540Z,8.93
2019-05-05T08:32:14.740Z,8.00
2019-05-05T08:34:57.508Z,5.77
2019-05-05T08:37:23.593Z,7.67
2019-05-05T08:39:56.682Z,8.97
2019-05-05T08:42:27.254Z,6.90
2019-05-05T08:45:04.707Z,5.63
2019-05-05T08:47:34.563Z,7.03
2019-05-05T08:50:05.230Z,5.10
2019-05-05T08:52:39.284Z,5.60
2019-05-05T08:55:08.856Z,6.97
2019-05-05T08:57:41.276Z,4.97
2019-05-05T09:00:10.913Z,4.70
2019-05-05T09:02:40.046Z,5.77
2019-05-05T09:05:11.738Z,9.17
2019-05-05T09:07:44.129Z,5.60
2019-05-05T09:10:14.240Z,4.53
2019-05-05T09:12:43.744Z,8.30
2019-05-05T09:15:13.754Z,6.20
2019-05-05T09:17:43.949Z,5.60
2019-05-05T09:20:13.981Z,5.50
2019-05-05T09:22:45.543Z,9.03
2019-05-05T09:25:34.178Z,7.40
2019-05-05T09:28:14.648Z,5.97
2019-05-05T09:30:45.760Z,6.17
2019-05-05T09:33:18.170Z,5.90
2019-05-05T09:35:45.726Z,4.57
2019-05-05T09:38:15.070Z,5.23
2019-05-05T09:40:44.276Z,6.67
2019-05-05T09:43:14.813Z,6.43
2019-05-05T09:45:45.652Z,6.17
2019-05-05T09:48:16.284Z,5.43
2019-05-05T09:50:45.766Z,9.60
2019-05-05T09:53:17.313Z,5.60
2019-05-05T09:55:46.371Z,6.80
2019-05-05T09:58:15.456Z,7.67
2019-05-05T10:00:46.294Z,6.17
2019-05-05T10:03:21.505Z,7.53
2019-05-05T10:05:50.603Z,5.10
2019-05-05T10:08:19.775Z,5.33
2019-05-05T10:10:54.580Z,6.60
2019-05-05T10:13:24.770Z,7.40
2019-05-05T10:15:56.873Z,4.53
2019-05-05T10:18:25.966Z,5.20
2019-05-05T10:20:55.208Z,5.00
2019-05-05T10:23:25.849Z,5.10
2019-05-05T10:26:00.067Z,7.70
2019-05-05T10:28:29.224Z,5.20
2019-05-05T10:31:04.728Z,8.03
2019-05-05T10:33:29.350Z,4.87
2019-05-05T10:35:58.421Z,6.70
2019-05-05T10:38:27.540Z,5.10
2019-05-05T10:40:56.618Z,4.77
2019-05-05T10:43:27.253Z,5.27
2019-05-05T10:45:56.371Z,5.50
2019-05-05T10:48:25.467Z,4.90
2019-05-05T10:50:54.779Z,4.20
2019-05-05T10:53:23.892Z,4.80
2019-05-05T10:55:53.953Z,4.70
2019-05-05T10:58:24.390Z,4.77
2019-05-05T11:01:00.300Z,4.30
2019-05-05T11:03:34.290Z,5.43
2019-05-05T11:06:04.540Z,4.70
2019-05-05T11:08:35.065Z,4.27
2019-05-05T11:11:04.534Z,5.40
2019-05-05T11:13:34.450Z,4.80
2019-05-05T11:16:04.030Z,4.17
2019-05-05T11:18:34.523Z,3.93
2019-05-05T11:21:04.390Z,5.10
2019-05-05T11:23:38.918Z,4.43
2019-05-05T11:26:10.038Z,6.07
2019-05-05T11:28:40.219Z,5.00
2019-05-05T11:31:13.803Z,5.60
2019-05-05T11:34:19.921Z,4.37
2019-05-05T11:37:16.737Z,14.03
2019-05-05T11:39:57.667Z,4.07
2019-05-05T11:42:30.142Z,5.23
2019-05-05T11:45:01.472Z,4.00
2019-05-05T11:47:33.714Z,5.80
2019-05-05T11:50:04.386Z,5.63
2019-05-05T11:52:33.761Z,5.47
2019-05-05T11:55:11.501Z,5.43
2019-05-05T11:57:34.240Z,6.10
2019-05-05T12:00:09.419Z,4.57
2019-05-05T12:02:48.592Z,3.63
2019-05-05T12:05:17.694Z,7.70
2019-05-05T12:07:51.168Z,4.50
2019-05-05T12:10:37.874Z,4.77
2019-05-05T12:13:08.846Z,4.03
2019-05-05T12:15:37.923Z,5.10
2019-05-05T12:18:07.046Z,3.70
2019-05-05T12:20:37.354Z,4.30
2019-05-05T12:23:10.127Z,5.20
2019-05-05T12:25:46.076Z,4.30
2019-05-05T12:28:46.299Z,5.70
2019-05-05T12:31:20.259Z,3.50
2019-05-05T12:33:49.387Z,3.87
2019-05-05T12:36:18.486Z,3.60
2019-05-05T12:38:49.698Z,3.90
2019-05-05T12:41:21.068Z,3.67
2019-05-05T12:43:54.867Z,3.73
2019-05-05T12:46:40.125Z,2.60
2019-05-05T12:49:09.767Z,2.83
2019-05-05T12:51:40.829Z,3.47
2019-05-05T12:54:10.980Z,4.20
2019-05-05T12:56:40.153Z,4.03
2019-05-05T12:59:15.464Z,2.70
2019-05-05T13:01:44.534Z,4.50
2019-05-05T13:04:14.281Z,3.23
2019-05-05T13:06:45.127Z,3.10
2019-05-05T13:09:16.025Z,7.10
2019-05-05T13:11:48.547Z,4.10
2019-05-05T13:14:19.267Z,2.67
2019-05-05T13:16:53.045Z,2.80
2019-05-05T13:19:25.265Z,2.83
2019-05-05T13:22:25.359Z,3.23
2019-05-05T13:25:13.863Z,2.77
2019-05-05T13:27:44.014Z,4.00
2019-05-05T13:30:15.350Z,4.20
2019-05-05T13:32:44.784Z,2.57
2019-05-05T13:35:14.454Z,3.33
2019-05-05T13:37:46.056Z,2.57
2019-05-05T13:40:21.436Z,4.17
2019-05-05T13:42:51.626Z,3.47
2019-05-05T13:45:38.779Z,3.33
2019-05-05T13:48:10.335Z,3.40
2019-05-05T13:50:42.314Z,2.50
2019-05-05T13:53:11.422Z,8.63
2019-05-05T13:55:41.841Z,3.70
2019-05-05T13:58:11.434Z,3.90
2019-05-05T14:00:40.582Z,4.10
2019-05-05T14:03:09.645Z,4.13
2019-05-05T14:05:38.710Z,3.30
2019-05-05T14:08:09.023Z,3.03
2019-05-05T14:10:39.913Z,3.50
2019-05-05T14:13:10.535Z,4.13
2019-05-05T14:15:39.936Z,3.97
2019-05-05T14:18:09.043Z,3.63
2019-05-05T14:20:38.103Z,3.40
2019-05-05T14:23:10.857Z,6.77
2019-05-05T14:25:40.330Z,3.13
2019-05-05T14:28:14.171Z,7.30
2019-05-05T14:30:57.774Z,32.53
2019-05-05T14:33:30.016Z,89.20
2019-05-05T14:36:39.039Z,3.30
2019-05-05T14:39:11.520Z,3.40
2019-05-05T14:41:40.646Z,3.40
2019-05-05T14:44:09.720Z,4.10
2019-05-05T14:46:39.045Z,3.60
2019-05-05T14:49:17.611Z,4.17
2019-05-05T14:51:46.797Z,4.03
2019-05-05T14:54:18.911Z,3.70
2019-05-05T14:56:48.907Z,3.80
2019-05-05T14:59:18.006Z,2.50
2019-05-05T15:01:47.161Z,4.20
2019-05-05T15:04:18.236Z,5.33
2019-05-05T15:06:54.326Z,3.63
2019-05-05T15:09:45.795Z,4.10
2019-05-05T15:12:35.454Z,5.27
2019-05-05T15:15:07.290Z,6.20
2019-05-05T15:17:39.755Z,3.20
2019-05-05T15:20:09.907Z,3.03
2019-05-05T15:22:40.418Z,6.00
2019-05-05T15:25:09.714Z,3.67
2019-05-05T15:27:38.787Z,5.30
2019-05-05T15:30:07.868Z,3.90
2019-05-05T15:32:36.966Z,4.30
2019-05-05T15:35:08.984Z,5.47
2019-05-05T15:37:38.076Z,4.17
2019-05-05T15:40:34.924Z,4.70
2019-05-05T15:43:04.144Z,2.80
2019-05-05T15:45:34.994Z,3.60
2019-05-05T15:48:05.522Z,4.50
2019-05-05T15:50:36.275Z,3.80
2019-05-05T15:53:06.743Z,2.90
2019-05-05T15:55:39.030Z,3.27
2019-05-05T15:58:14.157Z,4.73
2019-05-05T16:00:44.316Z,4.60
2019-05-05T16:03:13.617Z,3.53
2019-05-05T16:05:43.651Z,5.37
2019-05-05T16:08:14.111Z,3.60
2019-05-05T16:10:46.218Z,2.80
2019-05-05T16:13:14.116Z,3.80
2019-05-05T16:16:02.215Z,5.20
2019-05-05T16:18:41.240Z,3.73
2019-05-05T16:21:19.590Z,3.87
2019-05-05T16:23:54.461Z,4.93
2019-05-05T16:26:25.271Z,3.50
2019-05-05T16:28:55.228Z,3.47
2019-05-05T16:31:24.759Z,6.43
2019-05-05T16:34:03.794Z,3.00
2019-05-05T16:36:33.550Z,3.27
2019-05-05T16:39:04.182Z,3.53
2019-05-05T16:41:34.042Z,6.20
2019-05-05T16:44:03.817Z,2.33
2019-05-05T16:46:34.139Z,3.10
2019-05-05T16:49:13.912Z,4.27
2019-05-05T16:52:14.457Z,4.97
2019-05-05T16:55:07.721Z,3.50
2019-05-05T16:57:37.008Z,5.83
2019-05-05T17:00:07.587Z,3.90
2019-05-05T17:02:39.581Z,3.00
2019-05-05T17:05:09.315Z,4.17
2019-05-05T17:07:40.560Z,8.50
2019-05-05T17:10:09.273Z,3.33
2019-05-05T17:12:38.438Z,4.03
2019-05-05T17:15:27.214Z,3.20
2019-05-05T17:18:04.585Z,4.83
2019-05-05T17:20:38.482Z,4.43
2019-05-05T17:23:09.689Z,4.70
2019-05-05T17:25:39.080Z,4.30
2019-05-05T17:28:08.262Z,2.90
2019-05-05T17:30:37.323Z,3.60
2019-05-05T17:33:06.419Z,3.47
2019-05-05T17:35:44.983Z,2.93
2019-05-05T17:38:15.831Z,4.40
2019-05-05T17:41:10.804Z,6.30
2019-05-05T17:44:14.074Z,3.63
2019-05-05T17:47:04.453Z,4.57
2019-05-05T17:49:54.218Z,4.10
2019-05-05T17:52:35.948Z,6.03
2019-05-05T17:55:27.355Z,5.30
2019-05-05T17:58:02.695Z,4.40
2019-05-05T18:00:34.400Z,3.33
2019-05-05T18:03:06.628Z,3.43
2019-05-05T18:06:14.358Z,4.87
2019-05-05T18:08:49.571Z,4.00
2019-05-05T18:11:27.804Z,4.30
2019-05-05T18:14:01.257Z,3.20
2019-05-05T18:16:30.306Z,3.90
2019-05-05T18:19:01.402Z,4.10
2019-05-05T18:21:32.876Z,3.23
2019-05-05T18:24:04.010Z,3.63
2019-05-05T18:26:34.107Z,5.40
2019-05-05T18:29:03.904Z,3.50
2019-05-05T18:31:34.928Z,4.10
2019-05-05T18:34:04.163Z,3.60
2019-05-05T18:36:35.603Z,3.30
2019-05-05T18:39:06.636Z,2.97
2019-05-05T18:42:00.783Z,4.10
2019-05-05T18:44:37.522Z,3.57
2019-05-05T18:47:18.160Z,5.33
2019-05-05T18:49:46.683Z,4.03
2019-05-05T18:52:16.053Z,3.93
2019-05-05T18:54:45.269Z,4.93
2019-05-05T18:57:14.562Z,6.40
2019-05-05T18:59:44.698Z,5.47
2019-05-05T19:02:49.761Z,4.93
2019-05-05T19:05:53.513Z,5.60
2019-05-05T19:08:28.986Z,3.70
2019-05-05T19:10:58.569Z,4.50
2019-05-05T19:13:29.666Z,4.50
2019-05-05T19:16:03.452Z,5.10
2019-05-05T19:18:33.905Z,6.50
2019-05-05T19:21:14.286Z,4.80
2019-05-05T19:23:44.735Z,6.60
2019-05-05T19:26:14.900Z,6.30
2019-05-05T19:28:47.461Z,5.70
2019-05-05T19:31:19.483Z,5.47
2019-05-05T19:33:51.257Z,3.60
2019-05-05T19:36:24.851Z,4.77
2019-05-05T19:38:55.596Z,6.37
2019-05-05T19:41:24.614Z,5.90
2019-05-05T19:43:54.879Z,5.40
2019-05-05T19:46:36.466Z,4.83
2019-05-05T19:49:15.515Z,9.00
2019-05-05T19:51:44.797Z,5.00
2019-05-05T19:54:14.963Z,6.30
2019-05-05T19:56:44.786Z,5.07
2019-05-05T19:59:14.196Z,5.03
2019-05-05T20:01:45.031Z,3.70
2019-05-05T20:04:14.773Z,4.90
2019-05-05T20:06:44.407Z,3.27
2019-05-05T20:09:14.316Z,5.60
2019-05-05T20:11:43.976Z,4.77
2019-05-05T20:14:15.288Z,5.13
2019-05-05T20:17:06.926Z,3.57
2019-05-05T20:19:45.314Z,3.97
2019-05-05T20:22:14.803Z,5.63
2019-05-05T20:24:45.722Z,4.30
2019-05-05T20:27:15.466Z,4.67
2019-05-05T20:29:47.428Z,8.50
2019-05-05T20:32:18.502Z,4.80
2019-05-05T20:35:08.689Z,4.87
2019-05-05T20:37:43.152Z,6.13
2019-05-05T20:40:14.713Z,6.13
2019-05-05T20:42:44.808Z,4.43
2019-05-05T20:45:16.761Z,5.90
2019-05-05T20:47:54.881Z,6.33
2019-05-05T20:50:24.773Z,4.30
2019-05-05T20:52:54.434Z,8.20
2019-05-05T20:55:27.493Z,5.40
2019-05-05T20:57:57.077Z,5.40
2019-05-05T21:00:29.276Z,4.60
2019-05-05T21:02:58.382Z,7.30
2019-05-05T21:05:27.441Z,8.13
2019-05-05T21:07:56.485Z,6.07
2019-05-05T21:10:25.574Z,5.60
2019-05-05T21:12:54.651Z,5.70
2019-05-05T21:15:24.699Z,5.63
2019-05-05T21:18:04.906Z,5.53
2019-05-05T21:20:36.536Z,7.30
2019-05-05T21:23:20.740Z,8.27
2019-05-05T21:26:04.320Z,7.37
2019-05-05T21:28:36.439Z,6.93
2019-05-05T21:31:08.535Z,5.53
2019-05-05T21:33:40.618Z,6.37
2019-05-05T21:36:10.799Z,7.37
2019-05-05T21:38:44.194Z,7.70
2019-05-05T21:41:15.208Z,4.57
2019-05-05T21:43:49.903Z,7.80
2019-05-05T21:46:19.419Z,7.30
2019-05-05T21:48:48.564Z,8.47
2019-05-05T21:51:42.392Z,5.90
2019-05-05T21:54:37.872Z,5.67
2019-05-05T21:57:34.573Z,8.00
2019-05-05T22:00:13.934Z,8.63
2019-05-05T22:02:45.256Z,5.03
2019-05-05T22:05:14.650Z,5.57
2019-05-05T22:07:50.234Z,6.97
2019-05-05T22:10:19.301Z,6.40
2019-05-05T22:12:48.772Z,7.07
2019-05-05T22:15:18.012Z,5.03
2019-05-05T22:17:47.233Z,5.27
2019-05-05T22:23:09.405Z,9.27
2019-05-05T22:25:38.956Z,8.30
2019-05-05T22:28:10.522Z,6.17
2019-05-05T22:30:41.176Z,10.77
2019-05-05T22:33:14.016Z,5.00
2019-05-05T22:35:45.549Z,9.77
2019-05-05T22:38:14.658Z,6.90
2019-05-05T22:40:44.195Z,8.10
2019-05-05T22:43:14.763Z,7.43
2019-05-05T22:45:45.109Z,9.20
2019-05-05T22:48:14.908Z,6.87
2019-05-05T22:50:44.139Z,5.40
2019-05-05T22:53:14.042Z,5.93
2019-05-05T22:55:46.613Z,5.30
2019-05-05T22:58:15.705Z,5.83
2019-05-05T23:00:44.791Z,6.00
2019-05-05T23:03:29.377Z,6.20
2019-05-05T23:06:05.351Z,8.37
2019-05-05T23:08:35.242Z,7.73
2019-05-05T23:11:04.537Z,9.50
2019-05-05T23:13:36.646Z,7.77
2019-05-05T23:16:19.456Z,8.27
2019-05-05T23:18:50.794Z,9.10
2019-05-05T23:21:29.803Z,10.17
2019-05-05T23:24:15.050Z,10.73
2019-05-05T23:26:46.887Z,9.17
2019-05-05T23:29:16.036Z,7.53
2019-05-05T23:31:45.096Z,9.83
2019-05-05T23:34:14.688Z,12.40
2019-05-05T23:36:46.268Z,8.00
2019-05-05T23:39:15.309Z,6.63
2019-05-05T23:41:44.335Z,7.07
2019-05-05T23:44:14.364Z,8.20
2019-05-05T23:46:43.769Z,8.47
2019-05-05T23:49:13.970Z,9.27
2019-05-05T23:51:46.597Z,7.23
2019-05-05T23:54:15.694Z,9.97
2019-05-05T23:56:45.171Z,9.30
2019-05-05T23:59:24.016Z,8.30
